createdAt,value
2019-02-23T11:45:23.871Z,2.90
2019-02-23T11:47:52.372Z,5.58
2019-02-23T11:50:20.859Z,9.87
2019-02-23T11:52:49.387Z,8.50
2019-02-23T11:55:17.898Z,2.90
2019-02-23T11:57:46.376Z,3.97
2019-02-23T12:00:14.928Z,6.00
2019-02-23T12:02:52.168Z,3.83
2019-02-23T12:05:13.645Z,2.87
2019-02-23T12:07:42.135Z,4.70
2019-02-23T12:10:11.699Z,4.13
2019-02-23T12:12:40.204Z,2.87
2019-02-23T12:15:08.848Z,5.43
2019-02-23T12:17:37.348Z,4.13
2019-02-23T12:20:05.865Z,4.63
2019-02-23T12:22:34.342Z,4.03
2019-02-23T12:25:02.869Z,4.57
2019-02-23T12:27:31.391Z,3.70
2019-02-23T12:29:59.883Z,3.20
2019-02-23T12:32:28.703Z,2.53
2019-02-23T12:34:57.196Z,4.03
2019-02-23T12:37:25.705Z,4.03
2019-02-23T12:39:54.192Z,4.33
2019-02-23T12:42:22.697Z,2.50
2019-02-23T12:44:51.208Z,2.40
2019-02-23T12:47:19.725Z,4.60
2019-02-23T12:49:48.205Z,3.53
2019-02-23T12:52:16.741Z,3.63
2019-02-23T12:54:45.260Z,2.50
2019-02-23T12:57:13.738Z,4.70
2019-02-23T12:59:42.489Z,3.23
2019-02-23T13:02:10.975Z,2.97
2019-02-23T13:04:39.476Z,3.03
2019-02-23T13:07:08.008Z,2.87
2019-02-23T13:09:40.296Z,3.70
2019-02-23T13:12:15.785Z,3.03
2019-02-23T13:15:06.960Z,3.13
2019-02-23T13:17:54.201Z,2.13
2019-02-23T13:20:45.321Z,4.03
2019-02-23T13:23:38.757Z,5.60
2019-02-23T13:26:17.089Z,3.90
2019-02-23T13:29:03.939Z,4.13
2019-02-23T13:31:46.204Z,3.83
2019-02-23T13:34:30.646Z,2.20
2019-02-23T13:37:07.662Z,3.50
2019-02-23T13:40:03.499Z,3.47
2019-02-23T13:42:55.076Z,3.17
2019-02-23T13:45:45.320Z,3.87
2019-02-23T13:48:58.487Z,8.33
2019-02-23T13:51:50.533Z,3.23
2019-02-23T13:55:05.983Z,3.20
2019-02-23T13:58:19.212Z,3.73
2019-02-23T14:01:21.604Z,3.20
2019-02-23T14:03:56.742Z,3.13
2019-02-23T14:06:44.919Z,3.23
2019-02-23T14:09:50.568Z,5.00
2019-02-23T14:12:50.465Z,4.20
2019-02-23T14:15:55.169Z,2.97
2019-02-23T14:21:14.470Z,3.33
2019-02-23T14:24:21.755Z,2.80
2019-02-23T14:30:36.238Z,6.93
2019-02-23T14:33:39.063Z,7.97
2019-02-23T14:36:32.840Z,8.30
2019-02-23T14:39:38.135Z,9.37
2019-02-23T14:42:57.924Z,8.63
2019-02-23T14:51:41.668Z,9.60
2019-02-23T14:55:00.744Z,9.90
2019-02-23T14:58:11.952Z,12.93
2019-02-23T15:01:33.683Z,9.43
2019-02-23T15:04:34.110Z,11.17
2019-02-23T15:07:32.049Z,11.00
2019-02-23T15:10:29.038Z,9.70
2019-02-23T15:13:12.582Z,10.90
2019-02-23T15:16:17.602Z,11.38
2019-02-23T15:19:30.857Z,13.47
2019-02-23T15:28:35.769Z,11.87
2019-02-23T15:31:32.121Z,11.10
2019-02-23T15:34:48.930Z,11.40
2019-02-23T15:38:04.764Z,12.23
2019-02-23T15:41:03.729Z,11.70
2019-02-23T15:43:58.305Z,12.20
2019-02-23T15:47:24.173Z,11.90
2019-02-23T15:50:26.866Z,11.47
2019-02-23T15:52:55.735Z,12.37
2019-02-23T15:55:26.509Z,9.97
2019-02-23T15:57:55.307Z,14.47
2019-02-23T16:00:23.995Z,13.97
2019-02-23T16:02:52.749Z,11.23
2019-02-23T16:05:53.003Z,9.87
2019-02-23T16:08:22.110Z,11.83
2019-02-23T16:10:56.137Z,13.07
2019-02-23T16:13:25.461Z,22.07
2019-02-23T16:15:54.315Z,14.83
2019-02-23T16:18:24.345Z,16.20
2019-02-23T16:20:58.843Z,17.03
2019-02-23T16:23:35.220Z,12.13
2019-02-23T16:26:23.028Z,13.10
2019-02-23T16:28:55.706Z,12.20
2019-02-23T16:31:43.022Z,14.70
2019-02-23T16:34:20.923Z,11.77
2019-02-23T16:36:53.659Z,14.73
2019-02-23T16:39:22.858Z,15.20
2019-02-23T16:41:51.809Z,12.60
2019-02-23T16:44:20.565Z,13.67
2019-02-23T16:46:49.642Z,14.23
2019-02-23T16:49:18.387Z,13.90
2019-02-23T16:51:47.330Z,13.77
2019-02-23T16:54:16.388Z,12.73
2019-02-23T16:56:45.254Z,14.67
2019-02-23T16:59:16.971Z,10.70
2019-02-23T17:01:47.260Z,12.13
2019-02-23T17:04:16.041Z,12.83
2019-02-23T17:06:45.235Z,13.10
2019-02-23T17:09:14.063Z,11.30
2019-02-23T17:11:46.328Z,12.37
2019-02-23T17:14:19.539Z,10.27
2019-02-23T17:16:47.015Z,11.83
2019-02-23T17:19:15.848Z,11.67
2019-02-23T17:21:44.666Z,11.07
2019-02-23T17:24:13.431Z,14.97
2019-02-23T17:26:46.083Z,12.07
2019-02-23T17:29:15.158Z,14.87
2019-02-23T17:31:45.994Z,12.47
2019-02-23T17:34:15.107Z,12.20
2019-02-23T17:36:45.104Z,16.83
2019-02-23T17:39:15.061Z,12.37
2019-02-23T17:41:44.867Z,10.97
2019-02-23T17:44:17.275Z,14.60
2019-02-23T17:46:50.237Z,12.87
2019-02-23T17:49:25.666Z,14.97
2019-02-23T17:51:53.273Z,14.60
2019-02-23T17:54:22.394Z,13.20
2019-02-23T17:56:55.758Z,15.23
2019-02-23T17:59:24.742Z,14.37
2019-02-23T18:01:53.535Z,15.60
2019-02-23T18:04:22.405Z,18.83
2019-02-23T18:06:52.222Z,19.80
2019-02-23T18:09:21.129Z,18.27
2019-02-23T18:11:52.758Z,16.60
2019-02-23T18:14:21.838Z,17.77
2019-02-23T18:16:50.785Z,17.77
2019-02-23T18:19:19.585Z,18.73
2019-02-23T18:21:48.352Z,16.90
2019-02-23T18:24:17.644Z,18.57
2019-02-23T18:26:46.558Z,16.53
2019-02-23T18:29:18.360Z,17.83
2019-02-23T18:31:47.236Z,17.43
2019-02-23T18:34:17.361Z,19.77
2019-02-23T18:36:46.420Z,21.53
2019-02-23T18:39:15.333Z,18.97
2019-02-23T18:41:47.286Z,18.23
2019-02-23T18:44:16.251Z,17.23
2019-02-23T18:46:45.158Z,15.97
2019-02-23T18:49:14.085Z,19.07
2019-02-23T18:51:42.920Z,20.03
2019-02-23T18:54:11.756Z,25.80
2019-02-23T18:56:40.638Z,24.13
2019-02-23T18:59:09.481Z,23.13
2019-02-23T19:01:38.350Z,21.50
2019-02-23T19:04:07.443Z,21.07
2019-02-23T19:06:40.231Z,23.07
2019-02-23T19:09:09.011Z,20.43
2019-02-23T19:11:39.322Z,18.37
2019-02-23T19:14:08.330Z,19.47
2019-02-23T19:16:39.493Z,19.43
2019-02-23T19:19:11.987Z,20.70
2019-02-23T19:21:42.023Z,18.20
2019-02-23T19:24:10.815Z,18.30
2019-02-23T19:26:40.863Z,21.30
2019-02-23T19:29:12.250Z,20.43
2019-02-23T19:31:41.111Z,20.00
2019-02-23T19:34:10.174Z,17.03
2019-02-23T19:36:42.907Z,20.30
2019-02-23T19:39:11.937Z,16.63
2019-02-23T19:41:45.214Z,22.43
2019-02-23T19:44:14.093Z,19.00
2019-02-23T19:46:51.421Z,20.90
2019-02-23T19:49:21.575Z,18.97
2019-02-23T19:51:50.409Z,22.47
2019-02-23T19:54:19.569Z,18.63
2019-02-23T19:56:48.410Z,16.43
2019-02-23T19:59:17.541Z,19.03
2019-02-23T20:01:46.420Z,20.57
2019-02-23T20:04:16.388Z,24.87
2019-02-23T20:06:45.252Z,18.10
2019-02-23T20:09:15.605Z,21.90
2019-02-23T20:11:44.434Z,20.57
2019-02-23T20:14:13.250Z,22.97
2019-02-23T20:16:42.282Z,19.37
2019-02-23T20:19:11.128Z,25.27
2019-02-23T20:21:39.927Z,23.77
2019-02-23T20:24:12.681Z,22.67
2019-02-23T20:26:42.630Z,18.13
2019-02-23T20:29:15.501Z,19.30
2019-02-23T20:31:44.975Z,21.57
2019-02-23T20:34:14.081Z,18.77
2019-02-23T20:36:44.085Z,19.90
2019-02-23T20:39:13.959Z,16.10
2019-02-23T20:41:42.804Z,18.50
2019-02-23T20:44:11.751Z,15.90
2019-02-23T20:46:40.784Z,18.73
2019-02-23T20:49:09.687Z,14.83
2019-02-23T20:51:38.803Z,19.57
2019-02-23T20:54:07.603Z,16.17
2019-02-23T20:56:36.627Z,17.27
2019-02-23T20:59:05.579Z,11.40
2019-02-23T21:01:34.441Z,15.33
2019-02-23T21:04:03.472Z,15.77
2019-02-23T21:06:32.364Z,16.97
2019-02-23T21:09:02.219Z,13.70
2019-02-23T21:11:31.133Z,13.80
2019-02-23T21:14:00.007Z,14.97
2019-02-23T21:16:30.144Z,11.10
2019-02-23T21:18:59.566Z,13.77
2019-02-23T21:21:28.405Z,14.30
2019-02-23T21:24:01.184Z,14.33
2019-02-23T21:26:31.462Z,12.23
2019-02-23T21:29:00.338Z,12.87
2019-02-23T21:31:29.140Z,12.47
2019-02-23T21:33:58.326Z,11.40
2019-02-23T21:36:28.398Z,12.77
2019-02-23T21:38:57.400Z,11.30
2019-02-23T21:41:26.469Z,13.77
2019-02-23T21:43:55.371Z,12.13
2019-02-23T21:46:26.756Z,11.77
2019-02-23T21:48:55.370Z,14.80
2019-02-23T21:51:28.748Z,14.73
2019-02-23T21:54:00.539Z,14.87
2019-02-23T21:56:30.838Z,13.60
2019-02-23T21:59:03.550Z,18.20
2019-02-23T22:01:40.531Z,13.33
2019-02-23T22:04:12.099Z,11.00
2019-02-23T22:06:40.923Z,15.97
2019-02-23T22:09:17.854Z,12.97
2019-02-23T22:11:49.192Z,13.93
2019-02-23T22:14:25.759Z,12.37
2019-02-23T22:16:54.596Z,12.43
2019-02-23T22:19:29.313Z,11.70
2019-02-23T22:21:57.870Z,13.87
2019-02-23T22:24:30.683Z,15.83
2019-02-23T22:27:08.514Z,14.97
2019-02-23T22:29:40.662Z,12.27
2019-02-23T22:32:17.209Z,15.70
2019-02-23T22:34:48.202Z,15.50
2019-02-23T22:37:23.573Z,11.73
2019-02-23T22:40:01.209Z,15.10
2019-02-23T22:42:34.072Z,16.17
2019-02-23T22:45:06.606Z,13.00
2019-02-23T22:47:45.090Z,18.53
2019-02-23T22:50:14.847Z,13.90
2019-02-23T22:52:46.435Z,15.33
2019-02-23T22:55:27.167Z,15.37
2019-02-23T22:57:56.586Z,14.07
2019-02-23T23:00:30.997Z,18.90
2019-02-23T23:03:07.721Z,15.30
2019-02-23T23:05:53.528Z,13.47
2019-02-23T23:08:22.413Z,16.83
2019-02-23T23:10:51.300Z,14.43
2019-02-23T23:13:21.022Z,16.97
2019-02-23T23:15:52.175Z,17.53
2019-02-23T23:18:27.897Z,14.83
2019-02-23T23:20:58.580Z,15.53
2019-02-23T23:23:28.037Z,13.53
2019-02-23T23:26:06.436Z,15.33
2019-02-23T23:28:36.882Z,16.33
2019-02-23T23:31:05.814Z,13.93
2019-02-23T23:33:39.477Z,15.87
2019-02-23T23:36:09.901Z,12.00
2019-02-23T23:38:41.724Z,16.93
2019-02-23T23:41:11.166Z,16.20
2019-02-23T23:43:49.120Z,14.97
2019-02-23T23:46:19.842Z,12.17
2019-02-23T23:48:54.389Z,17.43
2019-02-23T23:51:28.112Z,15.50
2019-02-23T23:54:04.616Z,15.57
2019-02-23T23:56:33.739Z,15.33
2019-02-23T23:59:07.177Z,17.37
